Time,TemperatureF,DewpointF,PressureIn,WindDirection,WindDirectionDegrees,WindSpeedMPH,WindSpeedGustMPH,Humidity,HourlyPrecipIn,Conditions,Clouds,dailyrainin,SolarRadiationWatts/m^2,SoftwareType,DateUTC
2013-03-26 00:01:00,63.1,26.0,29.85,NNE,28,0.0,4.0,24,0.00,,,0.00,0,weatherlink.com 1.10,2013-03-26 07:01:00,
2013-03-26 00:16:00,62.9,24.0,29.84,NNE,28,0.0,1.0,23,0.00,,,0.00,0,weatherlink.com 1.10,2013-03-26 07:16:00,
2013-03-26 00:31:00,62.0,25.0,29.84,NNE,28,0.0,0.0,24,0.00,,,0.00,0,weatherlink.com 1.10,2013-03-26 07:31:00,
2013-03-26 00:46:00,61.8,24.0,29.84,NNE,28,0.0,0.0,24,0.00,,,0.00,0,weatherlink.com 1.10,2013-03-26 07:46:00,
2013-03-26 01:16:00,61.1,24.0,29.83,NNE,28,0.0,1.0,24,0.00,,,0.00,0,weatherlink.com 1.10,2013-03-26 08:16:00,
2013-03-26 01:31:00,60.4,25.0,29.83,NNE,28,0.0,2.0,26,0.00,,,0.00,0,weatherlink.com 1.10,2013-03-26 08:31:00,
2013-03-26 01:46:00,60.0,25.0,29.83,NNE,28,0.0,1.0,26,0.00,,,0.00,0,weatherlink.com 1.10,2013-03-26 08:46:00,
2013-03-26 02:01:00,59.8,26.0,29.83,NNE,28,0.0,1.0,27,0.00,,,0.00,0,weatherlink.com 1.10,2013-03-26 09:01:00,
2013-03-26 02:31:00,58.8,25.0,29.82,NNE,28,0.0,0.0,27,0.00,,,0.00,0,weatherlink.com 1.10,2013-03-26 09:31:00,
2013-03-26 02:46:00,59.0,25.0,29.81,NNE,28,0.0,0.0,27,0.00,,,0.00,0,weatherlink.com 1.10,2013-03-26 09:46:00,
2013-03-26 03:01:00,58.5,24.0,29.81,NNE,28,0.0,1.0,26,0.00,,,0.00,0,weatherlink.com 1.10,2013-03-26 10:01:00,
2013-03-26 03:16:00,58.4,23.0,29.80,NNE,28,0.0,1.0,26,0.00,,,0.00,0,weatherlink.com 1.10,2013-03-26 10:16:00,
2013-03-26 03:31:00,57.8,24.0,29.80,NNE,28,0.0,0.0,27,0.00,,,0.00,0,weatherlink.com 1.10,2013-03-26 10:31:00,
2013-03-26 03:47:00,57.2,24.0,29.80,NNE,28,0.0,0.0,28,0.00,,,0.00,0,weatherlink.com 1.10,2013-03-26 10:47:00,
2013-03-26 04:02:00,56.8,25.0,29.80,NNE,28,0.0,0.0,29,0.00,,,0.00,0,weatherlink.com 1.10,2013-03-26 11:02:00,
2013-03-26 04:17:00,56.8,26.0,29.79,NNE,28,0.0,0.0,30,0.00,,,0.00,0,weatherlink.com 1.10,2013-03-26 11:17:00,
2013-03-26 04:32:00,56.2,25.0,29.79,NNE,28,0.0,0.0,30,0.00,,,0.00,0,weatherlink.com 1.10,2013-03-26 11:32:00,
2013-03-26 04:47:00,56.1,26.0,29.79,NNE,28,0.0,0.0,31,0.00,,,0.00,0,weatherlink.com 1.10,2013-03-26 11:47:00,
2013-03-26 05:17:00,56.2,27.0,29.79,NNE,28,0.0,0.0,32,0.00,,,0.00,0,weatherlink.com 1.10,2013-03-26 12:17:00,
2013-03-26 05:32:00,56.2,27.0,29.79,NNE,28,0.0,1.0,33,0.00,,,0.00,0,weatherlink.com 1.10,2013-03-26 12:32:00,
2013-03-26 06:02:00,55.9,26.0,29.80,NNE,28,0.0,0.0,32,0.00,,,0.00,0,weatherlink.com 1.10,2013-03-26 13:02:00,
2013-03-26 06:17:00,55.3,27.0,29.79,NNE,28,0.0,0.0,34,0.00,,,0.00,0,weatherlink.com 1.10,2013-03-26 13:17:00,
2013-03-26 06:32:00,55.0,28.0,29.80,NNE,28,0.0,1.0,35,0.00,,,0.00,0,weatherlink.com 1.10,2013-03-26 13:32:00,
2013-03-26 06:47:00,54.7,28.0,29.80,NNE,28,0.0,0.0,36,0.00,,,0.00,5,weatherlink.com 1.10,2013-03-26 13:47:00,
2013-03-26 07:02:00,54.5,27.0,29.80,NNE,28,0.0,0.0,35,0.00,,,0.00,14,weatherlink.com 1.10,2013-03-26 14:02:00,
2013-03-26 07:17:00,55.0,28.0,29.80,NNE,28,0.0,0.0,35,0.00,,,0.00,35,weatherlink.com 1.10,2013-03-26 14:17:00,
2013-03-26 07:32:00,55.0,28.0,29.80,NNE,28,0.0,0.0,36,0.00,,,0.00,49,weatherlink.com 1.10,2013-03-26 14:32:00,
2013-03-26 07:47:00,55.8,28.0,29.81,NNE,28,0.0,0.0,35,0.00,,,0.00,63,weatherlink.com 1.10,2013-03-26 14:47:00,
2013-03-26 08:02:00,56.4,29.0,29.81,NNE,28,0.0,1.0,35,0.00,,,0.00,74,weatherlink.com 1.10,2013-03-26 15:02:00,
2013-03-26 08:17:00,57.3,30.0,29.81,NNE,28,0.0,1.0,36,0.00,,,0.00,102,weatherlink.com 1.10,2013-03-26 15:17:00,
2013-03-26 08:32:00,57.9,31.0,29.81,NNE,28,0.0,0.0,36,0.00,,,0.00,125,weatherlink.com 1.10,2013-03-26 15:32:00,
2013-03-26 08:47:00,60.9,26.0,29.81,NNE,28,0.0,2.0,26,0.00,,,0.00,137,weatherlink.com 1.10,2013-03-26 15:47:00,
2013-03-26 09:02:00,60.7,30.0,29.81,NE,36,0.0,0.0,32,0.00,,,0.00,171,weatherlink.com 1.10,2013-03-26 16:02:00,
2013-03-26 09:17:00,61.6,29.0,29.81,NE,36,0.0,0.0,29,0.00,,,0.00,179,weatherlink.com 1.10,2013-03-26 16:17:00,
2013-03-26 09:33:00,63.4,29.0,29.81,NE,36,0.0,0.0,27,0.00,,,0.00,188,weatherlink.com 1.10,2013-03-26 16:33:00,
2013-03-26 09:48:00,63.8,27.0,29.82,NE,36,0.0,1.0,25,0.00,,,0.00,209,weatherlink.com 1.10,2013-03-26 16:48:00,
2013-03-26 10:03:00,64.4,27.0,29.82,NE,36,0.0,0.0,24,0.00,,,0.00,234,weatherlink.com 1.10,2013-03-26 17:03:00,
2013-03-26 10:18:00,65.4,28.0,29.82,NE,36,0.0,0.0,24,0.00,,,0.00,287,weatherlink.com 1.10,2013-03-26 17:18:00,
2013-03-26 10:33:00,65.9,28.0,29.82,NE,36,0.0,0.0,24,0.00,,,0.00,292,weatherlink.com 1.10,2013-03-26 17:33:00,
2013-03-26 10:48:00,66.8,29.0,29.81,NE,36,0.0,1.0,24,0.00,,,0.00,329,weatherlink.com 1.10,2013-03-26 17:48:00,
2013-03-26 11:03:00,68.0,30.0,29.81,NE,36,0.0,1.0,24,0.00,,,0.00,385,weatherlink.com 1.10,2013-03-26 18:03:00,
2013-03-26 11:18:00,70.2,30.0,29.81,NE,36,0.0,2.0,22,0.00,,,0.00,846,weatherlink.com 1.10,2013-03-26 18:18:00,
2013-03-26 11:33:00,72.3,29.0,29.81,ENE,64,0.0,4.0,20,0.00,,,0.00,441,weatherlink.com 1.10,2013-03-26 18:33:00,
2013-03-26 11:48:00,72.7,28.0,29.80,ENE,68,0.0,5.0,19,0.00,,,0.00,429,weatherlink.com 1.10,2013-03-26 18:48:00,
2013-03-26 12:03:00,72.9,28.0,29.80,ENE,68,0.0,2.0,19,0.00,,,0.00,434,weatherlink.com 1.10,2013-03-26 19:03:00,
2013-03-26 12:18:00,74.6,31.0,29.79,NE,55,0.0,6.0,20,0.00,,,0.00,573,weatherlink.com 1.10,2013-03-26 19:18:00,
2013-03-26 12:33:00,75.9,29.0,29.78,ENE,61,0.0,4.0,18,0.00,,,0.00,933,weatherlink.com 1.10,2013-03-26 19:33:00,
2013-03-26 12:48:00,76.2,30.0,29.78,NE,50,0.0,5.0,18,0.00,,,0.00,411,weatherlink.com 1.10,2013-03-26 19:48:00,
2013-03-26 13:03:00,77.5,31.0,29.77,NE,51,0.0,2.0,18,0.00,,,0.00,823,weatherlink.com 1.10,2013-03-26 20:03:00,
2013-03-26 13:18:00,78.9,26.0,29.77,SE,130,6.0,8.0,14,0.00,,,0.00,439,weatherlink.com 1.10,2013-03-26 20:18:00,
2013-03-26 13:33:00,80.0,27.0,29.76,SSE,161,1.0,8.0,14,0.00,,,0.00,737,weatherlink.com 1.10,2013-03-26 20:33:00,
2013-03-26 13:48:00,80.7,23.0,29.75,SW,234,2.0,8.0,12,0.00,,,0.00,642,weatherlink.com 1.10,2013-03-26 20:48:00,
2013-03-26 14:03:00,81.4,24.0,29.75,SW,215,1.0,15.0,12,0.00,,,0.00,621,weatherlink.com 1.10,2013-03-26 21:03:00,
2013-03-26 14:18:00,81.3,26.0,29.74,SW,230,2.0,9.0,13,0.00,,,0.00,570,weatherlink.com 1.10,2013-03-26 21:18:00,
2013-03-26 14:33:00,81.3,26.0,29.73,WSW,238,0.0,11.0,13,0.00,,,0.00,494,weatherlink.com 1.10,2013-03-26 21:33:00,
2013-03-26 14:48:00,81.4,24.0,29.73,SW,214,1.0,12.0,12,0.00,,,0.00,534,weatherlink.com 1.10,2013-03-26 21:48:00,
2013-03-26 15:03:00,81.2,24.0,29.73,SW,225,1.0,13.0,12,0.00,,,0.00,461,weatherlink.com 1.10,2013-03-26 22:03:00,
2013-03-26 15:19:00,80.9,24.0,29.72,WSW,245,5.0,18.0,12,0.00,,,0.00,371,weatherlink.com 1.10,2013-03-26 22:19:00,
2013-03-26 15:34:00,80.2,25.0,29.72,SW,230,1.0,12.0,13,0.00,,,0.00,304,weatherlink.com 1.10,2013-03-26 22:34:00,
2013-03-26 15:49:00,80.5,25.0,29.70,SW,231,0.0,6.0,13,0.00,,,0.00,439,weatherlink.com 1.10,2013-03-26 22:49:00,
2013-03-26 16:04:00,82.5,27.0,29.70,SW,226,0.0,9.0,13,0.00,,,0.00,304,weatherlink.com 1.10,2013-03-26 23:04:00,
2013-03-26 16:19:00,81.7,26.0,29.69,SW,222,0.0,5.0,13,0.00,,,0.00,216,weatherlink.com 1.10,2013-03-26 23:19:00,
2013-03-26 16:34:00,81.3,26.0,29.69,South,171,0.0,10.0,13,0.00,,,0.00,156,weatherlink.com 1.10,2013-03-26 23:34:00,
2013-03-26 16:49:00,80.8,27.0,29.69,SSW,195,4.0,7.0,14,0.00,,,0.00,167,weatherlink.com 1.10,2013-03-26 23:49:00,
2013-03-26 17:04:00,81.9,26.0,29.68,SW,215,1.0,11.0,13,0.00,,,0.00,446,weatherlink.com 1.10,2013-03-27 00:04:00,
2013-03-26 17:19:00,81.6,26.0,29.68,South,177,0.0,9.0,13,0.00,,,0.00,76,weatherlink.com 1.10,2013-03-27 00:19:00,
2013-03-26 17:34:00,81.1,28.0,29.68,ESE,122,5.0,10.0,14,0.00,,,0.00,62,weatherlink.com 1.10,2013-03-27 00:34:00,
2013-03-26 17:49:00,80.7,29.0,29.68,South,173,0.0,6.0,15,0.00,,,0.00,44,weatherlink.com 1.10,2013-03-27 00:49:00,
2013-03-26 18:04:00,80.3,29.0,29.68,South,179,0.0,6.0,15,0.00,,,0.00,33,weatherlink.com 1.10,2013-03-27 01:04:00,
2013-03-26 18:19:00,79.6,28.0,29.68,SW,232,0.0,10.0,15,0.00,,,0.00,25,weatherlink.com 1.10,2013-03-27 01:19:00,
2013-03-26 18:34:00,78.8,27.0,29.68,SW,219,0.0,6.0,15,0.00,,,0.00,18,weatherlink.com 1.10,2013-03-27 01:34:00,
2013-03-26 18:49:00,77.6,28.0,29.68,SW,219,0.0,0.0,16,0.00,,,0.00,9,weatherlink.com 1.10,2013-03-27 01:49:00,
2013-03-26 19:04:00,75.7,29.0,29.68,SW,219,0.0,0.0,18,0.00,,,0.00,0,weatherlink.com 1.10,2013-03-27 02:04:00,
2013-03-26 19:19:00,73.5,29.0,29.68,SW,219,0.0,0.0,19,0.00,,,0.00,0,weatherlink.com 1.10,2013-03-27 02:19:00,
2013-03-26 19:34:00,73.9,30.0,29.68,SW,219,0.0,1.0,20,0.00,,,0.00,0,weatherlink.com 1.10,2013-03-27 02:34:00,
2013-03-26 19:49:00,73.5,29.0,29.69,SW,219,0.0,0.0,19,0.00,,,0.00,0,weatherlink.com 1.10,2013-03-27 02:49:00,
2013-03-26 20:04:00,72.9,28.0,29.69,SW,218,0.0,0.0,19,0.00,,,0.00,0,weatherlink.com 1.10,2013-03-27 03:04:00,
2013-03-26 20:19:00,73.3,29.0,29.70,SW,218,0.0,2.0,19,0.00,,,0.00,0,weatherlink.com 1.10,2013-03-27 03:19:00,
2013-03-26 20:34:00,73.4,30.0,29.70,SW,219,0.0,1.0,20,0.00,,,0.00,0,weatherlink.com 1.10,2013-03-27 03:34:00,
2013-03-26 20:49:00,72.9,29.0,29.70,SW,219,0.0,4.0,20,0.00,,,0.00,0,weatherlink.com 1.10,2013-03-27 03:49:00,
2013-03-26 21:04:00,72.3,30.0,29.71,SW,219,0.0,1.0,21,0.00,,,0.00,0,weatherlink.com 1.10,2013-03-27 04:04:00,
2013-03-26 21:19:00,71.3,30.0,29.72,SW,219,0.0,2.0,22,0.00,,,0.00,0,weatherlink.com 1.10,2013-03-27 04:19:00,
2013-03-26 21:34:00,71.3,30.0,29.72,SW,218,0.0,1.0,22,0.00,,,0.00,0,weatherlink.com 1.10,2013-03-27 04:34:00,
2013-03-26 21:49:00,71.2,30.0,29.73,SW,218,0.0,5.0,22,0.00,,,0.00,0,weatherlink.com 1.10,2013-03-27 04:49:00,
2013-03-26 22:04:00,71.2,30.0,29.73,SW,218,0.0,5.0,22,0.00,,,0.00,0,weatherlink.com 1.10,2013-03-27 05:04:00,
2013-03-26 22:19:00,71.2,30.0,29.73,SW,218,0.0,2.0,22,0.00,,,0.00,0,weatherlink.com 1.10,2013-03-27 05:19:00,
2013-03-26 22:35:00,70.1,31.0,29.73,SW,219,0.0,4.0,23,0.00,,,0.00,0,weatherlink.com 1.10,2013-03-27 05:35:00,
2013-03-26 22:49:00,69.1,31.0,29.73,SW,219,0.0,5.0,24,0.00,,,0.00,0,weatherlink.com 1.10,2013-03-27 05:49:00,
2013-03-26 23:04:00,68.4,31.0,29.74,SW,223,6.0,6.0,25,0.00,,,0.00,0,weatherlink.com 1.10,2013-03-27 06:04:00,
2013-03-26 23:19:00,68.4,32.0,29.75,SW,222,1.0,4.0,26,0.00,,,0.00,0,weatherlink.com 1.10,2013-03-27 06:19:00,
2013-03-26 23:34:00,69.2,33.0,29.75,SW,225,0.0,7.0,26,0.00,,,0.00,0,weatherlink.com 1.10,2013-03-27 06:34:00,
2013-03-26 23:49:00,68.9,33.0,29.75,SW,232,1.0,7.0,27,0.00,,,0.00,0,weatherlink.com 1.10,2013-03-27 06:49:00,